Flight Track Log - Related Links

Times and Time Zones

All times are in EDT time to prevent confusion due to time zone crossing. See the EGF2746 flight status page for this flight to view local times or setup timezone preferences in your user account.

Time Position Orientation Groundspeed Altitude Reporting Facility
EDT Latitude Longitude Course Direction KTS MPH feet Rate Location/Type
Tue 10:31:41 AM 32.8833 -97.0500 328° Northwest 174 200 1,400  Level Dallas / Fort Worth TRACON
Tue 10:32:36 AM 32.8333 -97.0500 180° South 211 243 3,600 2,526 Climbing Dallas / Fort Worth TRACON
Tue 10:33:00 AM 32.7576 -96.8877 79° East  Level FlightAware Approximate
Tue 10:33:35 AM 32.7833 -97.0833 209° Southwest 238 274 6,200  Level Dallas / Fort Worth TRACON
Tue 10:34:00 AM 32.8163 -96.8067 10° North  Level FlightAware Approximate
Tue 10:34:36 AM 32.8000 -97.1500 287° West 272 313 8,200  Level Dallas / Fort Worth TRACON
Tue 10:35:00 AM 32.9267 -96.8000 North  Level FlightAware Approximate
Tue 10:35:36 AM 32.8833 -97.1500 360° North 293 337 10,300  Level Dallas / Fort Worth TRACON
Tue 10:36:00 AM 33.0294 -96.8345 328° Northwest  Level FlightAware Approximate
Tue 10:36:39 AM 32.9750 -97.1436 North 332 382 11,500  Level Fort Worth Center
Tue 10:37:39 AM 33.0628 -97.1383 North 342 394 12,500 1,150 Climbing Fort Worth Center
Tue 10:38:39 AM 33.1753 -97.1306 North 355 409 13,800 1,150 Climbing Fort Worth Center
Tue 10:39:39 AM 33.2672 -97.1253 North 361 415 14,800 1,150 Climbing Fort Worth Center
Tue 10:40:39 AM 33.3842 -97.1150 North 376 433 16,100 1,200 Climbing Fort Worth Center
Tue 10:41:39 AM 33.4781 -97.1072 North 376 433 17,200 1,100 Climbing Fort Worth Center
Tue 10:42:39 AM 33.5947 -97.0917 North 381 438 18,300 1,050 Climbing Fort Worth Center
Tue 10:43:39 AM 33.6886 -97.0814 North 381 438 19,300 1,150 Climbing Fort Worth Center
Tue 10:44:39 AM 33.8078 -97.0661 North 387 445 20,600 1,250 Climbing Fort Worth Center
Tue 10:45:39 AM 33.9142 -97.0556 North 387 445 21,800 1,200 Climbing Fort Worth Center
Tue 10:46:39 AM 34.0247 -97.0400 North 387 445 23,000 1,200 Climbing Fort Worth Center
Tue 10:47:39 AM 34.1353 -97.0272 North 387 445 24,200 1,200 Climbing Fort Worth Center
Tue 10:48:39 AM 34.2458 -97.0089 North 387 445 25,400 1,150 Climbing Fort Worth Center
Tue 10:49:39 AM 34.3542 -96.9783 13° North 387 445 26,500 1,050 Climbing Fort Worth Center
Tue 10:50:39 AM 34.4561 -96.9122 28° Northeast 393 452 27,500 1,000 Climbing Fort Worth Center
Tue 10:51:39 AM 34.5561 -96.8486 28° Northeast 398 458 28,500 1,000 Climbing Fort Worth Center
Tue 10:52:39 AM 34.6622 -96.7850 26° Northeast 409 471 29,500 950 Climbing Fort Worth Center
Tue 10:53:39 AM 34.7661 -96.7183 28° Northeast 409 471 30,400 950 Climbing Fort Worth Center
Tue 10:54:39 AM 34.8678 -96.6517 28° Northeast 409 471 31,400 1,000 Climbing Fort Worth Center
Tue 10:55:39 AM 34.9739 -96.5850 27° Northeast 414 476 32,400 1,000 Climbing Fort Worth Center
Tue 10:56:39 AM 35.0819 -96.5156 28° Northeast 419 482 33,400 1,000 Climbing Fort Worth Center
Tue 10:57:39 AM 35.1897 -96.4456 28° Northeast 425 489 34,400 900 Climbing Fort Worth Center
Tue 10:58:39 AM 35.2978 -96.3783 27° Northeast 425 489 35,200 850 Climbing Fort Worth Center
Tue 10:59:39 AM 35.4036 -96.3133 27° Northeast 430 495 36,100 574 Climbing Fort Worth Center
Tue 11:01:47 AM 35.6364 -96.1617 28° Northeast 439 505 37,000 284 Climbing Kansas City Center
Tue 11:02:49 AM 35.7453 -96.0917 28° Northeast 442 509 37,000  Level Kansas City Center
Tue 11:03:51 AM 35.8458 -96.0269 28° Northeast 445 512 37,000  Level Kansas City Center
Tue 11:04:53 AM 35.9806 -95.9403 27° Northeast 451 519 37,000  Level Kansas City Center
Tue 11:05:55 AM 36.0919 -95.8661 28° Northeast 453 521 37,000  Level Kansas City Center
Tue 11:06:57 AM 36.2033 -95.7936 28° Northeast 451 519 37,000  Level Kansas City Center
Tue 11:07:59 AM 36.3222 -95.7156 28° Northeast 453 521 37,000  Level Kansas City Center
Tue 11:09:01 AM 36.4333 -95.6425 28° Northeast 453 521 37,000  Level Kansas City Center
Tue 11:10:03 AM 36.5456 -95.5708 27° Northeast 454 522 37,000  Level Kansas City Center
Tue 11:11:05 AM 36.6564 -95.4939 29° Northeast 452 520 37,000  Level Kansas City Center
Tue 11:12:07 AM 36.7683 -95.4192 28° Northeast 452 520 37,000  Level Kansas City Center
Tue 11:13:09 AM 36.8800 -95.3453 28° Northeast 452 520 37,000  Level Kansas City Center
Tue 11:14:11 AM 37.0128 -95.2536 29° Northeast 452 520 37,000  Level Kansas City Center
Tue 11:15:13 AM 37.1253 -95.1811 27° Northeast 452 520 37,000  Level Kansas City Center
Tue 11:16:15 AM 37.2369 -95.1067 28° Northeast 453 521 37,000  Level Kansas City Center
Tue 11:17:17 AM 37.3492 -95.0314 28° Northeast 454 522 37,000  Level Kansas City Center
Tue 11:18:19 AM 37.4606 -94.9544 29° Northeast 455 524 37,000  Level Kansas City Center
Tue 11:19:21 AM 37.5731 -94.8764 29° Northeast 458 527 37,000  Level Kansas City Center
Tue 11:20:24 AM 37.6911 -94.7956 28° Northeast 456 525 37,000  Level Kansas City Center
Tue 11:21:26 AM 37.8117 -94.7119 29° Northeast 446 513 37,000  Level Kansas City Center
Tue 11:22:28 AM 37.9125 -94.6436 28° Northeast 436 502 37,000  Level Kansas City Center
Tue 11:23:30 AM 38.0294 -94.5617 29° Northeast 432 497 37,000  Level Kansas City Center
Tue 11:24:32 AM 38.1300 -94.4928 28° Northeast 430 495 37,000  Level Kansas City Center
Tue 11:25:34 AM 38.2439 -94.4114 29° Northeast 425 489 37,000  Level Kansas City Center
Tue 11:26:36 AM 38.3433 -94.3425 29° Northeast 425 489 37,000  Level Kansas City Center
Tue 11:27:38 AM 38.4575 -94.2628 29° Northeast 420 483 37,000  Level Kansas City Center
Tue 11:28:40 AM 38.5550 -94.1947 29° Northeast 417 480 37,000  Level Kansas City Center
Tue 11:29:42 AM 38.6686 -94.1142 29° Northeast 419 482 37,000  Level Kansas City Center
Tue 11:30:44 AM 38.7689 -94.0442 29° Northeast 426 490 37,000  Level Kansas City Center
Tue 11:31:46 AM 38.8731 -93.9692 29° Northeast 443 510 37,000  Level Kansas City Center
Tue 11:32:48 AM 38.9947 -93.8822 29° Northeast 448 516 37,000  Level Kansas City Center
Tue 11:33:50 AM 39.0961 -93.8094 29° Northeast 440 506 37,000  Level Kansas City Center
Tue 11:34:52 AM 39.2144 -93.7253 29° Northeast 436 502 37,000  Level Kansas City Center
Tue 11:35:54 AM 39.3158 -93.6528 29° Northeast 437 503 37,000  Level Kansas City Center
Tue 11:36:56 AM 39.4178 -93.5783 29° Northeast 428 493 37,000 -290 Level Kansas City Center
Tue 11:37:58 AM 39.5431 -93.4892 29° Northeast 431 496 36,400 -968 Descending Kansas City Center
Tue 11:39:00 AM 39.6428 -93.4108 31° Northeast 427 491 35,000 -1,403 Descending Kansas City Center
Tue 11:40:02 AM 39.7475 -93.3400 27° Northeast 424 488 33,500 -968 Descending Kansas City Center
Tue 11:41:04 AM 39.8500 -93.2639 30° Northeast 427 491 33,000 -242 Descending Kansas City Center
Tue 11:42:06 AM 39.9506 -93.1886 30° Northeast 421 484 33,000  Level Kansas City Center
Tue 11:43:08 AM 40.0681 -93.1014 30° Northeast 410 472 33,000  Level Kansas City Center
Tue 11:44:10 AM 40.1608 -93.0358 28° Northeast 417 480 33,000 -48 Level Kansas City Center
Tue 11:45:12 AM 40.2708 -92.9497 31° Northeast 414 476 32,900 -480 Descending Kansas City Center
Tue 11:46:15 AM 40.3703 -92.8764 29° Northeast 425 489 32,000 -960 Descending Kansas City Center
Tue 11:47:17 AM 40.4872 -92.7886 30° Northeast 431 496 30,900 -968 Descending Kansas City Center
Tue 11:48:19 AM 40.5883 -92.7131 30° Northeast 435 501 30,000 -1,355 Descending Kansas City Center
Tue 11:49:21 AM 40.6858 -92.6369 31° Northeast 436 502 28,100 -2,308 Descending Kansas City Center
Tue 11:50:29 AM 40.8003 -92.5497 30° Northeast 404 465 25,000 -2,815 Descending Chicago Center
Tue 11:51:31 AM 40.8931 -92.4817 29° Northeast 387 445 22,000 -2,903 Descending Chicago Center
Tue 11:52:33 AM 40.9819 -92.4128 30° Northeast 375 432 19,000 -3,097 Descending Chicago Center
Tue 11:53:35 AM 41.0864 -92.3331 30° Northeast 364 419 15,600 -2,903 Descending Chicago Center
Tue 11:54:37 AM 41.1683 -92.2700 30° Northeast 348 400 13,000 -1,984 Descending Chicago Center
Tue 11:55:39 AM 41.2422 -92.2131 30° Northeast 325 374 11,500 -1,065 Descending Chicago Center
Tue 11:56:41 AM 41.3150 -92.1569 30° Northeast 310 357 10,800 -1,161 Descending Chicago Center
Tue 11:57:43 AM 41.4028 -92.1094 22° Northeast 288 331 9,100 -1,463 Descending Chicago Center
Tue 11:58:44 AM 41.4744 -92.0708 22° Northeast 282 325 7,800 -1,220 Descending Chicago Center
Tue 11:59:46 AM 41.5408 -92.0289 25° Northeast 271 312 6,600 -1,065 Descending Chicago Center
Tue 12:00:48 PM 41.6092 -91.9933 21° North 267 307 5,600 -823 Descending Chicago Center
Tue 12:01:50 PM 41.6758 -91.9567 22° Northeast 263 303 4,900 -629 Descending Chicago Center
Tue 12:02:52 PM 41.7550 -91.9114 23° Northeast 262 302 4,300 -581 Descending Chicago Center

Login

Don't have an account? Register now (free) for customized features, flight alerts, and more!